Time;durP1;ratioP1;P1;durP2;ratioP2;P2;SDS_P1;SDS_P2;PMS_P1;PMS_P2;Temp;Humidity;BMP_temperature;BMP_pressure;BME280_temperature;BME280_humidity;BME280_pressure;Samples;Min_cycle;Max_cycle;Signal;HPM_P1;HPM_P2
2023/10/07 00:00:33;;;;;;;4.53;2.77;;;17.50;99.90;;;;;;5044328;28;20451;-60
2023/10/07 00:03:00;;;;;;;5.67;2.83;;;17.50;99.90;;;;;;5034979;28;20518;-59
2023/10/07 00:05:31;;;;;;;5.93;2.20;;;17.90;99.90;;;;;;5028587;28;20521;-59
2023/10/07 00:08:01;;;;;;;4.83;2.40;;;18.20;99.90;;;;;;5045572;28;20439;-60
2023/10/07 00:10:29;;;;;;;4.60;2.77;;;17.90;99.90;;;;;;5046040;28;20532;-59
2023/10/07 00:12:58;;;;;;;3.30;2.30;;;17.60;99.90;;;;;;5045797;28;20452;-60
2023/10/07 00:15:29;;;;;;;4.23;2.20;;;16.90;99.90;;;;;;5045001;28;20436;-58
2023/10/07 00:18:00;;;;;;;4.23;2.30;;;17.60;99.90;;;;;;5028471;28;20448;-60
2023/10/07 00:20:28;;;;;;;5.33;2.67;;;17.60;99.90;;;;;;5019872;28;20445;-60
2023/10/07 00:23:00;;;;;;;3.90;2.47;;;17.70;99.90;;;;;;5038305;28;20468;-56
2023/10/07 00:25:30;;;;;;;3.63;2.23;;;17.50;99.90;;;;;;5038789;28;20447;-62
2023/10/07 00:27:58;;;;;;;4.73;2.57;;;17.70;99.90;;;;;;5036343;28;20467;-58
2023/10/07 00:30:29;;;;;;;4.37;2.23;;;17.80;99.90;;;;;;5035824;28;20511;-60
2023/10/07 00:32:58;;;;;;;3.63;2.30;;;17.70;99.90;;;;;;5035865;28;20444;-59
2023/10/07 00:35:28;;;;;;;5.87;2.50;;;17.70;99.90;;;;;;5036087;28;20483;-60
2023/10/07 00:37:58;;;;;;;6.10;2.63;;;17.70;99.90;;;;;;5035635;28;20933;-60
2023/10/07 00:40:39;;;;;;;7.83;3.50;;;17.60;99.90;;;;;;5036057;28;20444;-60
2023/10/07 00:43:09;;;;;;;4.37;2.70;;;17.60;99.90;;;;;;5036152;28;20511;-58
2023/10/07 00:45:38;;;;;;;4.30;3.27;;;17.90;99.90;;;;;;5035713;28;20472;-61
2023/10/07 00:48:10;;;;;;;7.53;2.53;;;;;;;;;;5035937;28;20494;-59
2023/10/07 00:50:40;;;;;;;3.43;2.20;;;17.70;99.90;;;;;;5035591;28;20468;-60
2023/10/07 00:53:09;;;;;;;3.50;2.27;;;17.70;99.90;;;;;;5035803;28;20478;-59
2023/10/07 00:55:37;;;;;;;2.63;2.10;;;17.70;99.90;;;;;;5035825;28;20594;-58
2023/10/07 00:58:07;;;;;;;7.53;3.00;;;17.70;99.90;;;;;;5035548;28;20498;-60
2023/10/07 01:00:46;;;;;;;7.03;2.60;;;17.70;99.90;;;;;;5035785;28;20468;-59
2023/10/07 01:03:47;;;;;;;3.70;2.33;;;17.70;99.90;;;;;;5035859;28;20515;-61
2023/10/07 01:06:10;;;;;;;4.13;2.83;;;17.70;99.90;;;;;;5035321;28;20459;-61
2023/10/07 01:08:44;;;;;;;4.70;2.80;;;;;;;;;;5035501;28;20865;-58
2023/10/07 01:11:19;;;;;;;7.37;2.77;;;17.80;99.90;;;;;;5035266;28;20472;-60
2023/10/07 01:13:50;;;;;;;3.30;1.90;;;17.60;99.90;;;;;;5034338;28;20823;-60
2023/10/07 01:22:09;;;;;;;5.90;3.43;;;17.70;99.90;;;;;;5029348;28;20432;-59
2023/10/07 01:24:49;;;;;;;4.60;2.30;;;17.60;99.90;;;;;;5035033;28;20443;-61
2023/10/07 01:27:22;;;;;;;5.57;2.50;;;17.70;99.90;;;;;;5034838;28;20543;-60
2023/10/07 01:29:50;;;;;;;5.47;2.70;;;17.50;99.90;;;;;;5035319;28;20786;-60
2023/10/07 01:32:19;;;;;;;7.13;2.80;;;18.30;99.90;;;;;;5034462;28;20490;-59
2023/10/07 01:34:49;;;;;;;6.10;2.63;;;17.70;99.90;;;;;;5035055;28;20456;-59
2023/10/07 01:37:21;;;;;;;4.47;2.63;;;17.70;99.90;;;;;;5035073;28;20454;-60
2023/10/07 01:39:52;;;;;;;2.87;1.90;;;17.70;99.90;;;;;;5034763;28;20433;-59
2023/10/07 01:42:26;;;;;;;2.87;2.23;;;17.70;99.90;;;;;;5034915;28;20483;-59
2023/10/07 01:44:57;;;;;;;5.57;3.33;;;17.70;99.90;;;;;;5034901;28;20495;-55
2023/10/07 01:47:25;;;;;;;5.27;2.60;;;17.70;99.90;;;;;;5034940;28;20464;-59
2023/10/07 01:49:55;;;;;;;3.80;2.10;;;17.70;99.90;;;;;;5034990;28;20510;-59
2023/10/07 01:52:26;;;;;;;5.90;2.80;;;17.70;99.90;;;;;;5039909;28;20796;-60
2023/10/07 01:54:55;;;;;;;4.90;3.07;;;17.70;99.90;;;;;;5038984;28;20483;-59
2023/10/07 01:57:22;;;;;;;4.23;3.03;;;17.60;99.90;;;;;;5039645;28;20941;-59
2023/10/07 01:59:52;;;;;;;4.03;2.50;;;;;;;;;;5040339;28;20420;-59
2023/10/07 02:02:25;;;;;;;4.37;2.80;;;17.70;99.90;;;;;;5035255;28;20463;-59
2023/10/07 02:04:55;;;;;;;8.13;2.83;;;17.70;99.90;;;;;;5035452;28;20503;-60
2023/10/07 02:07:22;;;;;;;6.13;2.37;;;17.70;99.90;;;;;;5034582;28;20456;-62
2023/10/07 02:09:49;;;;;;;6.00;3.17;;;17.70;99.90;;;;;;5034122;28;20535;-57
2023/10/07 02:12:18;;;;;;;5.40;3.10;;;17.60;99.90;;;;;;5035849;28;20603;-60
2023/10/07 02:14:45;;;;;;;4.80;2.67;;;17.60;99.90;;;;;;5035586;28;20452;-60
2023/10/07 02:17:14;;;;;;;4.50;2.47;;;18.00;99.90;;;;;;5037341;28;20488;-60
2023/10/07 02:19:43;;;;;;;3.60;2.80;;;17.60;99.90;;;;;;5033934;28;20476;-60
2023/10/07 02:22:21;;;;;;;4.27;2.40;;;17.70;99.90;;;;;;5034481;28;20448;-60
2023/10/07 02:24:53;;;;;;;5.07;2.77;;;17.60;99.90;;;;;;5037918;28;20456;-58
2023/10/07 02:27:25;;;;;;;5.00;2.57;;;17.40;99.90;;;;;;5039967;28;20444;-59
2023/10/07 02:29:56;;;;;;;5.27;2.70;;;17.60;99.90;;;;;;5034052;28;20424;-60
2023/10/07 02:32:23;;;;;;;11.90;2.83;;;;;;;;;;5034080;28;20511;-59
2023/10/07 02:34:55;;;;;;;4.90;2.73;;;17.70;99.90;;;;;;5034063;28;20476;-59
2023/10/07 02:37:22;;;;;;;6.27;3.00;;;;;;;;;;5037391;28;20870;-59
2023/10/07 02:39:54;;;;;;;7.40;2.50;;;17.60;99.90;;;;;;5038963;28;20979;-58
2023/10/07 02:42:24;;;;;;;8.30;3.73;;;17.60;99.90;;;;;;5039890;28;20425;-58
2023/10/07 02:45:00;;;;;;;8.30;3.53;;;17.60;99.90;;;;;;5038058;28;20470;-60
2023/10/07 02:47:30;;;;;;;3.93;2.33;;;17.50;99.90;;;;;;5038216;28;20460;-60
2023/10/07 02:50:00;;;;;;;6.03;3.73;;;17.50;99.90;;;;;;5038198;28;20451;-61
2023/10/07 02:52:35;;;;;;;7.90;3.20;;;17.50;99.90;;;;;;5035912;28;20541;-60
2023/10/07 02:55:29;;;;;;;9.83;3.97;;;17.50;99.90;;;;;;5036561;28;20487;-60
2023/10/07 02:57:57;;;;;;;3.37;2.67;;;17.50;99.90;;;;;;5029433;28;20456;-60
2023/10/07 03:00:35;;;;;;;4.20;3.30;;;17.50;99.90;;;;;;5033467;28;20500;-60
2023/10/07 03:03:32;;;;;;;11.00;2.50;;;17.50;99.90;;;;;;5034062;28;20436;-60
2023/10/07 03:06:00;;;;;;;4.90;2.97;;;17.50;99.90;;;;;;5033112;28;20480;-60
2023/10/07 03:08:40;;;;;;;6.87;3.47;;;17.50;99.90;;;;;;5033562;28;20979;-61
2023/10/07 03:11:11;;;;;;;4.50;3.37;;;17.50;99.90;;;;;;5033757;28;20534;-60
2023/10/07 03:13:45;;;;;;;5.20;2.90;;;17.50;99.90;;;;;;5033796;28;20468;-59
2023/10/07 03:16:35;;;;;;;6.13;3.10;;;17.50;99.90;;;;;;5033822;28;20455;-57
2023/10/07 03:19:08;;;;;;;3.50;3.00;;;17.50;99.90;;;;;;5033680;28;20490;-60
2023/10/07 03:24:28;;;;;;;7.07;2.90;;;17.50;99.90;;;;;;5033773;28;20823;-60
2023/10/07 03:27:05;;;;;;;10.27;3.40;;;;;;;;;;5033261;28;20554;-59
2023/10/07 03:29:37;;;;;;;5.07;3.40;;;17.50;99.90;;;;;;5033971;28;20456;-59
2023/10/07 03:32:08;;;;;;;5.13;3.60;;;17.20;99.90;;;;;;5033446;28;20493;-60
2023/10/07 03:34:37;;;;;;;5.33;3.23;;;;;;;;;;5033345;28;20452;-60
2023/10/07 03:37:15;;;;;;;16.40;3.23;;;16.50;99.90;;;;;;5036839;28;20460;-61
2023/10/07 03:40:17;;;;;;;8.10;3.73;;;17.50;99.90;;;;;;5036825;28;20478;-59
2023/10/07 03:42:46;;;;;;;5.33;3.17;;;17.50;99.90;;;;;;5037069;28;20439;-59
2023/10/07 03:45:15;;;;;;;4.70;2.60;;;17.40;99.90;;;;;;5037368;28;20444;-59
2023/10/07 03:47:46;;;;;;;4.90;3.27;;;17.40;99.90;;;;;;5037189;28;20443;-59
2023/10/07 03:50:29;;;;;;;8.73;4.07;;;17.40;99.90;;;;;;5037210;28;20735;-59
2023/10/07 03:52:58;;;;;;;7.03;3.00;;;17.40;99.90;;;;;;5036665;28;20538;-60
2023/10/07 03:55:27;;;;;;;5.67;3.37;;;17.40;99.90;;;;;;5036579;28;20488;-60
2023/10/07 03:57:57;;;;;;;5.97;2.97;;;17.40;99.90;;;;;;5037017;28;20462;-60
2023/10/07 04:00:33;;;;;;;7.93;3.53;;;17.40;99.90;;;;;;5036623;28;20464;-61
2023/10/07 04:03:07;;;;;;;5.23;3.20;;;;;;;;;;5037026;28;20456;-59
2023/10/07 04:05:41;;;;;;;6.10;3.87;;;17.40;99.90;;;;;;5035555;28;20760;-61
2023/10/07 04:08:09;;;;;;;7.93;4.27;;;17.40;99.90;;;;;;5036585;28;20451;-59
2023/10/07 04:10:43;;;;;;;6.20;3.30;;;;;;;;;;5036872;28;20550;-60
2023/10/07 04:13:21;;;;;;;4.83;3.00;;;17.30;99.90;;;;;;5036258;28;20520;-60
2023/10/07 04:15:52;;;;;;;7.50;5.03;;;17.50;99.90;;;;;;5036291;28;20448;-60
2023/10/07 04:18:23;;;;;;;6.17;3.20;;;17.30;99.90;;;;;;5036429;28;20746;-60
2023/10/07 04:20:57;;;;;;;7.83;3.40;;;17.30;99.90;;;;;;5036195;28;20483;-59
2023/10/07 04:23:25;;;;;;;10.53;3.87;;;17.80;99.90;;;;;;5036601;28;20442;-62
2023/10/07 04:25:55;;;;;;;6.00;3.20;;;17.20;99.90;;;;;;5036569;28;20495;-61
2023/10/07 04:28:25;;;;;;;6.33;2.87;;;17.20;99.90;;;;;;5036152;28;20476;-60
2023/10/07 04:30:54;;;;;;;5.27;2.60;;;17.30;99.90;;;;;;5036416;28;20488;-58
2023/10/07 04:33:32;;;;;;;5.80;3.20;;;17.30;99.90;;;;;;5036106;28;20475;-59
2023/10/07 04:36:04;;;;;;;6.60;3.30;;;17.50;99.90;;;;;;5036748;28;20455;-59
2023/10/07 04:38:52;;;;;;;5.43;3.70;;;17.30;99.90;;;;;;5036500;28;20445;-59
2023/10/07 04:41:31;;;;;;;4.93;3.17;;;17.30;99.90;;;;;;5016802;28;20425;-61
2023/10/07 04:44:20;;;;;;;4.13;2.80;;;17.30;99.90;;;;;;5028009;28;20482;-61
2023/10/07 04:46:56;;;;;;;6.40;3.43;;;17.30;99.90;;;;;;5035465;28;20495;-60
2023/10/07 04:49:28;;;;;;;7.33;4.43;;;16.80;99.90;;;;;;5036011;28;20474;-61
2023/10/07 04:51:58;;;;;;;5.40;3.20;;;17.30;99.90;;;;;;5035573;28;20472;-60
2023/10/07 04:54:28;;;;;;;5.03;3.67;;;17.30;99.90;;;;;;5035782;28;20464;-59
2023/10/07 04:57:00;;;;;;;6.77;3.53;;;17.30;99.90;;;;;;5035791;28;20490;-60
2023/10/07 04:59:28;;;;;;;11.03;4.10;;;17.30;99.90;;;;;;5035587;28;21101;-60
2023/10/07 05:01:56;;;;;;;4.23;3.00;;;17.30;99.90;;;;;;5035953;28;20472;-58
2023/10/07 05:04:25;;;;;;;5.47;3.40;;;17.50;99.90;;;;;;5035736;28;20468;-59
2023/10/07 05:06:53;;;;;;;6.70;3.50;;;;;;;;;;5035391;28;20470;-58
2023/10/07 05:09:21;;;;;;;5.97;3.60;;;16.80;99.90;;;;;;5035427;28;20468;-60
2023/10/07 05:11:49;;;;;;;3.90;3.43;;;17.30;99.90;;;;;;5035436;28;20460;-60
2023/10/07 05:14:17;;;;;;;6.67;3.47;;;17.30;99.90;;;;;;5035072;28;20472;-59
2023/10/07 05:16:47;;;;;;;7.27;3.60;;;17.40;99.90;;;;;;5035253;28;20444;-61
2023/10/07 05:19:22;;;;;;;6.30;3.97;;;17.20;99.90;;;;;;5035634;28;20470;-60
2023/10/07 05:21:59;;;;;;;7.10;4.50;;;17.20;99.90;;;;;;5035291;28;20475;-63
2023/10/07 05:24:29;;;;;;;8.00;3.70;;;17.20;99.90;;;;;;5035024;28;20493;-59
2023/10/07 05:26:59;;;;;;;6.50;3.63;;;17.10;99.90;;;;;;5035057;28;20538;-58
2023/10/07 05:29:26;;;;;;;3.13;2.80;;;17.10;99.90;;;;;;5035610;28;20559;-61
2023/10/07 05:31:55;;;;;;;4.10;3.53;;;17.10;99.90;;;;;;5035165;28;20517;-60
2023/10/07 05:34:28;;;;;;;5.30;3.60;;;17.10;99.90;;;;;;5035277;28;20459;-59
2023/10/07 05:36:58;;;;;;;3.63;3.03;;;17.70;99.90;;;;;;5035085;28;20445;-60
2023/10/07 05:39:25;;;;;;;5.77;4.03;;;17.10;99.90;;;;;;5034983;28;20555;-60
2023/10/07 05:41:53;;;;;;;6.53;4.17;;;;;;;;;;5034698;28;20924;-61
2023/10/07 05:44:20;;;;;;;9.87;4.17;;;17.30;99.90;;;;;;5035088;28;20440;-59
2023/10/07 05:46:47;;;;;;;7.10;3.27;;;17.20;99.90;;;;;;5035086;28;20529;-60
2023/10/07 05:49:14;;;;;;;5.00;3.30;;;17.20;99.90;;;;;;5035086;28;20472;-60
2023/10/07 05:51:44;;;;;;;8.23;3.33;;;17.20;99.90;;;;;;5034884;28;20875;-59
2023/10/07 05:54:11;;;;;;;4.80;3.60;;;17.20;99.90;;;;;;5034809;28;20452;-60
2023/10/07 05:56:39;;;;;;;3.93;3.20;;;17.20;99.90;;;;;;5034969;28;20537;-61
2023/10/07 05:59:06;;;;;;;8.47;3.77;;;17.30;99.90;;;;;;5034240;28;20448;-60
2023/10/07 06:01:33;;;;;;;3.97;3.57;;;17.30;99.90;;;;;;5034783;28;20455;-59
2023/10/07 06:04:01;;;;;;;7.77;5.13;;;17.30;99.90;;;;;;5033574;28;20522;-60
2023/10/07 06:06:30;;;;;;;10.10;4.30;;;17.30;99.90;;;;;;5034788;28;20448;-60
2023/10/07 06:09:00;;;;;;;7.87;4.00;;;17.20;99.90;;;;;;5034789;28;20444;-59
2023/10/07 06:11:29;;;;;;;6.93;3.30;;;17.10;99.90;;;;;;5033980;28;20463;-59
2023/10/07 06:13:56;;;;;;;4.23;3.83;;;17.20;99.90;;;;;;5034538;28;20499;-57
2023/10/07 06:16:24;;;;;;;7.60;3.60;;;;;;;;;;5034036;28;20678;-59
2023/10/07 06:18:51;;;;;;;6.77;3.73;;;;;;;;;;5034703;28;20506;-62
2023/10/07 06:21:27;;;;;;;4.57;3.10;;;17.30;99.90;;;;;;5034487;28;20530;-60
2023/10/07 06:23:54;;;;;;;9.60;3.87;;;17.20;99.90;;;;;;5034173;28;20448;-60
2023/10/07 06:26:24;;;;;;;6.33;4.03;;;17.10;99.90;;;;;;5034364;28;20444;-61
2023/10/07 06:28:51;;;;;;;5.63;4.10;;;17.00;99.90;;;;;;5043081;28;20934;-60
2023/10/07 06:31:22;;;;;;;6.33;4.10;;;17.10;99.90;;;;;;5045057;28;20928;-61
2023/10/07 06:33:59;;;;;;;5.87;4.53;;;17.30;99.90;;;;;;5030483;28;20556;-55
2023/10/07 06:36:26;;;;;;;6.27;3.80;;;17.00;99.90;;;;;;5028741;28;20463;-52
2023/10/07 06:38:58;;;;;;;8.90;4.47;;;17.00;99.90;;;;;;5025009;28;20531;-49
2023/10/07 06:41:29;;;;;;;4.80;3.90;;;17.00;99.90;;;;;;5025514;28;20513;-52
2023/10/07 06:43:59;;;;;;;10.63;4.60;;;16.90;99.90;;;;;;5028939;28;20565;-49
2023/10/07 06:46:40;;;;;;;6.60;4.53;;;16.80;99.90;;;;;;5034493;28;20455;-51
2023/10/07 06:49:07;;;;;;;8.33;4.60;;;16.80;99.90;;;;;;5032569;28;20489;-51
2023/10/07 06:51:37;;;;;;;9.80;5.40;;;16.70;99.90;;;;;;5039090;28;20575;-48
2023/10/07 06:54:06;;;;;;;9.60;4.90;;;16.70;99.90;;;;;;5042885;28;20540;-51
2023/10/07 06:56:35;;;;;;;7.60;4.53;;;16.60;99.90;;;;;;5030968;28;20448;-49
2023/10/07 06:59:03;;;;;;;5.07;4.07;;;16.60;99.90;;;;;;5045572;28;20432;-49
2023/10/07 07:01:51;;;;;;;8.00;4.40;;;16.70;99.90;;;;;;5028960;28;20806;-52
2023/10/07 07:04:21;;;;;;;7.60;4.10;;;16.60;99.90;;;;;;5024519;28;20437;-51
2023/10/07 07:06:57;;;;;;;7.47;5.17;;;16.60;99.90;;;;;;5026030;28;20574;-53
2023/10/07 07:09:50;;;;;;;7.93;4.83;;;16.60;99.90;;;;;;5035304;28;20467;-49
2023/10/07 07:12:21;;;;;;;6.67;4.23;;;16.70;99.90;;;;;;5037645;28;20472;-49
2023/10/07 07:14:51;;;;;;;6.10;4.07;;;16.70;99.90;;;;;;5038766;28;20432;-47
2023/10/07 07:17:35;;;;;;;12.83;5.37;;;16.70;99.90;;;;;;5038480;28;20916;-47
2023/10/07 07:22:50;;;;;;;6.63;5.20;;;16.60;99.90;;;;;;5038174;28;20472;-54
2023/10/07 07:25:30;;;;;;;6.40;4.63;;;16.50;99.90;;;;;;5045095;28;20416;-50
2023/10/07 07:28:01;;;;;;;9.43;4.97;;;16.50;99.90;;;;;;5059029;28;20500;-51
2023/10/07 07:30:30;;;;;;;10.67;6.07;;;16.40;99.90;;;;;;5058157;28;20443;-56
2023/10/07 07:32:59;;;;;;;7.07;6.03;;;16.40;99.90;;;;;;5058710;28;20491;-52
2023/10/07 07:35:38;;;;;;;12.67;5.00;;;16.40;99.90;;;;;;5059233;28;20544;-49
2023/10/07 07:38:22;;;;;;;9.20;7.23;;;16.50;99.90;;;;;;5058841;28;20427;-55
2023/10/07 07:40:52;;;;;;;6.00;4.83;;;16.40;99.90;;;;;;5058698;28;20519;-53
2023/10/07 07:43:25;;;;;;;6.83;5.50;;;16.50;99.90;;;;;;5058634;28;20436;-54
2023/10/07 07:45:56;;;;;;;7.13;4.60;;;16.50;99.90;;;;;;5058219;28;20475;-52
2023/10/07 07:48:25;;;;;;;5.93;5.43;;;16.50;99.90;;;;;;5058520;28;20436;-55
2023/10/07 07:50:56;;;;;;;6.33;4.70;;;16.60;99.90;;;;;;5058358;28;20471;-51
2023/10/07 07:53:23;;;;;;;8.67;5.10;;;16.60;99.90;;;;;;5058493;28;20541;-51
2023/10/07 07:55:55;;;;;;;12.10;5.50;;;16.70;99.90;;;;;;5058520;28;20463;-52
2023/10/07 07:58:24;;;;;;;7.77;5.00;;;16.70;99.90;;;;;;5058723;28;20452;-50
2023/10/07 08:00:58;;;;;;;9.53;4.87;;;16.70;99.90;;;;;;5058699;28;20482;-54
2023/10/07 08:03:25;;;;;;;6.23;4.90;;;16.80;99.90;;;;;;5058253;28;20443;-52
2023/10/07 08:05:53;;;;;;;7.30;3.83;;;16.80;99.90;;;;;;5058200;28;20448;-50
2023/10/07 08:08:24;;;;;;;3.90;3.50;;;16.80;99.90;;;;;;5058144;28;20432;-52
2023/10/07 08:10:54;;;;;;;11.57;4.40;;;16.90;99.90;;;;;;5058032;28;20432;-51
2023/10/07 08:13:27;;;;;;;4.83;4.43;;;17.00;99.90;;;;;;5058571;28;20487;-53
2023/10/07 08:15:54;;;;;;;4.33;3.37;;;17.20;99.90;;;;;;5057984;28;20439;-48
2023/10/07 08:18:28;;;;;;;5.47;4.00;;;17.10;99.90;;;;;;5058554;28;20456;-51
2023/10/07 08:21:06;;;;;;;5.70;3.97;;;17.10;99.90;;;;;;5054122;28;20427;-51
2023/10/07 08:23:36;;;;;;;6.90;4.20;;;17.10;99.90;;;;;;5054165;28;20444;-52
2023/10/07 08:26:09;;;;;;;3.80;3.47;;;17.10;99.90;;;;;;5054647;28;20431;-52
2023/10/07 08:28:42;;;;;;;4.60;3.20;;;17.20;99.90;;;;;;5054856;28;20478;-47
2023/10/07 08:31:19;;;;;;;4.63;4.10;;;17.20;99.90;;;;;;5054373;28;20509;-53
2023/10/07 08:33:53;;;;;;;5.80;4.47;;;17.10;99.90;;;;;;5053789;28;20492;-50
2023/10/07 08:36:27;;;;;;;5.37;3.97;;;;;;;;;;5054106;28;20463;-49
2023/10/07 08:38:56;;;;;;;5.20;4.33;;;17.20;99.90;;;;;;5053934;28;20976;-52
2023/10/07 08:41:26;;;;;;;4.90;4.30;;;17.20;99.90;;;;;;5055722;28;20455;-54
2023/10/07 08:44:13;;;;;;;12.77;4.90;;;17.10;99.90;;;;;;5054116;28;20535;-50
2023/10/07 08:46:40;;;;;;;6.57;4.53;;;;;;;;;;5057289;28;20519;-52
2023/10/07 08:49:13;;;;;;;5.00;3.90;;;17.10;99.90;;;;;;5054742;28;20468;-46
2023/10/07 08:51:41;;;;;;;4.83;3.80;;;17.10;99.90;;;;;;5053607;28;20472;-52
2023/10/07 08:54:17;;;;;;;5.90;4.43;;;16.90;99.90;;;;;;5052563;28;20483;-64
2023/10/07 08:56:54;;;;;;;5.10;3.90;;;17.10;99.90;;;;;;5058225;28;20459;-60
2023/10/07 08:59:24;;;;;;;8.60;4.13;;;17.20;99.90;;;;;;5057356;28;20452;-61
2023/10/07 09:01:57;;;;;;;7.60;4.00;;;17.30;99.90;;;;;;5057708;28;20455;-59
2023/10/07 09:04:25;;;;;;;4.60;3.63;;;17.20;99.90;;;;;;5057617;28;20437;-63
2023/10/07 09:06:52;;;;;;;4.97;4.17;;;17.30;99.90;;;;;;5057379;28;20463;-62
2023/10/07 09:09:33;;;;;;;5.57;4.37;;;17.90;99.90;;;;;;5057504;28;20464;-56
2023/10/07 09:12:10;;;;;;;4.93;3.57;;;17.40;99.90;;;;;;5056637;28;20429;-61
2023/10/07 09:14:46;;;;;;;5.50;3.33;;;17.40;99.90;;;;;;5055782;28;20474;-61
2023/10/07 09:17:13;;;;;;;5.70;4.07;;;;;;;;;;5056082;28;20436;-60
2023/10/07 09:19:43;;;;;;;6.17;4.30;;;17.40;99.90;;;;;;5055689;28;20494;-62
2023/10/07 09:22:11;;;;;;;8.77;4.40;;;17.40;99.90;;;;;;5056071;28;20412;-59
2023/10/07 09:24:42;;;;;;;5.27;3.90;;;17.40;99.90;;;;;;5056215;28;20441;-60
2023/10/07 09:27:13;;;;;;;4.63;3.53;;;17.40;99.90;;;;;;5056559;28;20438;-63
2023/10/07 09:29:49;;;;;;;6.83;4.50;;;17.40;99.90;;;;;;5056942;28;20428;-55
2023/10/07 09:32:21;;;;;;;6.67;4.30;;;17.50;99.90;;;;;;5055843;28;20474;-62
2023/10/07 09:34:48;;;;;;;8.03;4.10;;;17.60;99.90;;;;;;5049749;28;20464;-63
2023/10/07 09:37:21;;;;;;;8.33;4.43;;;17.40;99.90;;;;;;5049937;28;20471;-62
2023/10/07 09:39:54;;;;;;;6.70;4.40;;;17.40;99.90;;;;;;5050642;28;20432;-63
2023/10/07 09:42:26;;;;;;;5.23;4.73;;;17.40;99.90;;;;;;5050007;28;20443;-61
2023/10/07 09:45:09;;;;;;;8.30;4.73;;;17.40;99.90;;;;;;5049334;28;20417;-60
2023/10/07 09:47:38;;;;;;;6.27;5.20;;;17.40;99.90;;;;;;5049275;28;20450;-63
2023/10/07 09:50:19;;;;;;;7.67;5.57;;;17.40;99.90;;;;;;5050172;28;20468;-62
2023/10/07 09:52:51;;;;;;;10.27;5.30;;;17.30;99.90;;;;;;5051109;28;20496;-63
2023/10/07 09:55:50;;;;;;;6.97;5.43;;;17.30;99.90;;;;;;5049099;28;20492;-60
2023/10/07 09:58:36;;;;;;;10.33;6.30;;;17.30;99.90;;;;;;5049528;28;20437;-65
2023/10/07 10:01:28;;;;;;;6.67;5.23;;;17.40;99.90;;;;;;5048995;28;20495;-62
2023/10/07 10:04:17;;;;;;;6.27;5.00;;;17.40;99.90;;;;;;5049271;28;20503;-62
2023/10/07 10:07:00;;;;;;;11.10;5.43;;;17.40;99.90;;;;;;5036087;28;20472;-62
2023/10/07 10:09:42;;;;;;;7.13;6.30;;;17.40;99.90;;;;;;5050128;28;20463;-61
2023/10/07 10:12:22;;;;;;;8.10;5.50;;;17.40;99.90;;;;;;5049607;28;20471;-60
2023/10/07 10:15:50;;;;;;;7.57;6.30;;;17.60;99.90;;;;;;5048480;28;20499;-62
2023/10/07 10:17:48;;;;;;;8.10;6.90;;;17.40;99.90;;;;;;5048382;28;20444;-63
2023/10/07 10:20:18;;;;;;;10.60;6.87;;;17.30;99.90;;;;;;5048846;28;20511;-62
2023/10/07 10:22:51;;;;;;;10.93;7.40;;;17.40;99.90;;;;;;5049177;28;20514;-62
2023/10/07 10:25:26;;;;;;;8.67;6.50;;;17.40;99.90;;;;;;5040899;28;20443;-62
2023/10/07 10:28:01;;;;;;;11.17;7.00;;;17.30;99.90;;;;;;5040924;28;20432;-62
2023/10/07 10:30:28;;;;;;;12.53;6.67;;;17.30;99.90;;;;;;5040930;28;20499;-63
2023/10/07 10:33:07;;;;;;;9.73;5.80;;;17.30;99.90;;;;;;5041975;28;20503;-62
2023/10/07 10:35:40;;;;;;;10.53;7.53;;;17.40;99.90;;;;;;5043688;28;20484;-64
2023/10/07 10:38:09;;;;;;;11.63;7.67;;;17.60;99.90;;;;;;5041384;28;20459;-63
2023/10/07 10:40:38;;;;;;;8.53;7.17;;;;;;;;;;5041587;28;20453;-63
2023/10/07 10:43:05;;;;;;;12.70;7.13;;;17.40;99.90;;;;;;5040722;28;20444;-62
2023/10/07 10:45:33;;;;;;;7.87;6.60;;;;;;;;;;5041176;28;20436;-63
2023/10/07 10:48:02;;;;;;;9.47;6.20;;;17.40;99.90;;;;;;5040603;28;20464;-64
2023/10/07 10:50:29;;;;;;;9.13;8.20;;;17.50;99.90;;;;;;5041296;28;20448;-63
2023/10/07 10:52:59;;;;;;;12.27;8.50;;;17.40;99.90;;;;;;5040387;28;20464;-64
2023/10/07 10:55:26;;;;;;;8.50;7.60;;;17.40;99.90;;;;;;5041012;28;20484;-63
2023/10/07 10:57:53;;;;;;;9.40;7.63;;;17.40;99.90;;;;;;5041284;28;20444;-62
2023/10/07 11:00:21;;;;;;;11.37;7.67;;;;;;;;;;5041547;28;20440;-61
2023/10/07 11:02:49;;;;;;;19.83;8.80;;;17.40;99.90;;;;;;5041111;28;20444;-63
2023/10/07 11:05:18;;;;;;;10.80;8.70;;;17.40;99.90;;;;;;5041757;28;20593;-62
2023/10/07 11:07:48;;;;;;;9.80;8.00;;;17.30;99.90;;;;;;5041491;28;20486;-61
2023/10/07 11:10:20;;;;;;;9.67;8.40;;;17.30;99.90;;;;;;5041134;28;20433;-61
2023/10/07 11:12:52;;;;;;;12.27;8.40;;;17.30;99.90;;;;;;5041341;28;20468;-57
2023/10/07 11:15:24;;;;;;;11.17;9.00;;;17.30;99.90;;;;;;5041354;28;20463;-63
2023/10/07 11:17:54;;;;;;;16.50;8.90;;;17.30;99.90;;;;;;5041606;28;20496;-63
2023/10/07 11:20:24;;;;;;;12.53;8.57;;;17.30;99.90;;;;;;5040888;28;20476;-63
2023/10/07 11:22:53;;;;;;;13.10;9.57;;;17.30;99.90;;;;;;5041472;28;20526;-61
2023/10/07 11:25:25;;;;;;;10.73;7.97;;;17.30;99.90;;;;;;5041825;28;20424;-62
2023/10/07 11:27:52;;;;;;;10.70;9.10;;;;;;;;;;5041998;28;20447;-62
2023/10/07 11:30:21;;;;;;;10.23;8.40;;;17.30;99.90;;;;;;5040863;28;20468;-62
2023/10/07 11:32:48;;;;;;;9.90;7.77;;;17.30;99.90;;;;;;5041298;28;20464;-62
2023/10/07 11:35:20;;;;;;;10.43;8.80;;;17.40;99.90;;;;;;5040641;28;20518;-60
2023/10/07 11:37:57;;;;;;;15.67;11.20;;;17.40;99.90;;;;;;5040317;28;20535;-63
2023/10/07 11:40:24;;;;;;;10.57;8.43;;;17.40;99.90;;;;;;5040868;28;20439;-62
2023/10/07 11:42:52;;;;;;;16.03;9.10;;;17.40;99.90;;;;;;5040107;28;20455;-60
2023/10/07 11:45:22;;;;;;;9.93;8.40;;;17.40;99.90;;;;;;5041156;28;20513;-62
2023/10/07 11:47:49;;;;;;;9.80;8.00;;;17.40;99.90;;;;;;5040759;28;20533;-62
2023/10/07 11:50:18;;;;;;;10.80;8.20;;;17.50;99.90;;;;;;5041091;28;20452;-66
2023/10/07 11:52:46;;;;;;;12.60;8.67;;;17.50;99.90;;;;;;5040723;28;20480;-60
2023/10/07 11:55:17;;;;;;;11.73;8.77;;;17.50;99.90;;;;;;5040779;28;20480;-61
2023/10/07 11:57:44;;;;;;;10.30;7.83;;;;;;;;;;5043527;28;20436;-62
2023/10/07 12:00:27;;;;;;;11.17;8.50;;;17.50;99.90;;;;;;5044806;28;20463;-63
2023/10/07 12:02:57;;;;;;;10.40;8.13;;;17.50;99.90;;;;;;5044626;28;20845;-62
2023/10/07 12:05:27;;;;;;;13.17;9.27;;;17.50;99.90;;;;;;5044952;28;20448;-59
2023/10/07 12:07:55;;;;;;;11.77;9.27;;;17.40;99.90;;;;;;5045045;28;20424;-61
2023/10/07 12:10:23;;;;;;;10.53;8.20;;;17.30;99.90;;;;;;5044588;28;20459;-61
2023/10/07 12:12:51;;;;;;;11.23;8.53;;;17.30;99.90;;;;;;5044826;28;20960;-60
2023/10/07 12:15:19;;;;;;;15.37;10.20;;;;;;;;;;5044200;28;20486;-61
2023/10/07 12:17:48;;;;;;;16.43;9.67;;;;;;;;;;5045504;28;20503;-61
2023/10/07 12:20:16;;;;;;;15.90;9.80;;;17.20;99.90;;;;;;5044626;28;20452;-60
2023/10/07 12:22:44;;;;;;;15.47;9.87;;;17.20;99.90;;;;;;5044286;28;20440;-61
2023/10/07 12:25:16;;;;;;;11.93;9.50;;;17.00;99.90;;;;;;5045242;28;20456;-61
2023/10/07 12:27:44;;;;;;;13.93;9.70;;;17.00;99.90;;;;;;5045891;28;20440;-61
2023/10/07 12:30:14;;;;;;;16.13;9.90;;;17.00;99.90;;;;;;5044858;28;20468;-62
2023/10/07 12:32:41;;;;;;;14.00;8.50;;;17.10;99.90;;;;;;5044421;28;20433;-62
2023/10/07 12:35:10;;;;;;;10.90;8.53;;;17.00;99.90;;;;;;5044785;28;20968;-61
2023/10/07 12:37:39;;;;;;;14.77;9.60;;;17.00;99.90;;;;;;5037591;28;20920;-61
2023/10/07 12:40:11;;;;;;;12.40;9.07;;;17.00;99.90;;;;;;5036583;28;20444;-61
2023/10/07 12:42:39;;;;;;;9.57;8.57;;;17.10;99.90;;;;;;5036997;28;20429;-61
2023/10/07 12:45:09;;;;;;;17.43;9.20;;;17.10;99.90;;;;;;5037240;28;20464;-61
2023/10/07 12:47:37;;;;;;;12.77;9.17;;;17.10;99.90;;;;;;5036663;28;20464;-62
2023/10/07 12:50:20;;;;;;;11.63;8.20;;;17.20;99.90;;;;;;5036511;28;20444;-61
2023/10/07 12:52:47;;;;;;;12.80;8.07;;;17.20;99.90;;;;;;5036756;28;20858;-63
2023/10/07 12:55:14;;;;;;;11.30;8.33;;;17.20;99.90;;;;;;5036253;28;20515;-61
2023/10/07 12:57:42;;;;;;;11.33;7.90;;;;;;;;;;5036291;28;20502;-63
2023/10/07 13:00:22;;;;;;;11.33;7.57;;;17.30;99.90;;;;;;5036289;28;20472;-62
2023/10/07 13:02:49;;;;;;;14.70;8.33;;;17.30;99.90;;;;;;5036471;28;20439;-61
2023/10/07 13:05:19;;;;;;;10.93;8.00;;;17.40;99.90;;;;;;5036355;28;20474;-62
2023/10/07 13:07:46;;;;;;;11.60;7.20;;;17.40;99.90;;;;;;5036242;28;20888;-61
2023/10/07 13:10:13;;;;;;;10.17;6.87;;;17.50;99.90;;;;;;5035744;28;20544;-62
2023/10/07 13:12:40;;;;;;;28.33;9.57;;;17.70;99.90;;;;;;5036183;28;20522;-62
2023/10/07 13:15:15;;;;;;;8.87;7.53;;;17.70;99.90;;;;;;5036170;28;20488;-61
2023/10/07 13:17:45;;;;;;;11.07;8.00;;;17.50;99.90;;;;;;5035735;28;20432;-60
2023/10/07 13:20:12;;;;;;;9.23;6.77;;;17.60;99.90;;;;;;5036375;28;20840;-61
2023/10/07 13:22:40;;;;;;;15.00;7.90;;;17.60;99.90;;;;;;5035745;28;20535;-62
2023/10/07 13:25:09;;;;;;;13.13;7.97;;;17.60;99.90;;;;;;5035648;28;20568;-61
2023/10/07 13:27:39;;;;;;;15.70;8.20;;;18.20;99.90;;;;;;5035649;28;20917;-61